sensor_id;sensor_type;location;lat;lon;timestamp;pressure;altitude;pressure_sealevel;temperature;humidity
57572;BME280;44459;43.522;24.470;2023-04-08T00:01:31;100559.69;;;4.73;99.97
57572;BME280;44459;43.522;24.470;2023-04-08T00:03:56;100558.06;;;4.77;99.47
57572;BME280;44459;43.522;24.470;2023-04-08T00:06:21;100554.78;;;4.82;99.27
57572;BME280;44459;43.522;24.470;2023-04-08T00:08:47;100551.47;;;4.88;98.36
57572;BME280;44459;43.522;24.470;2023-04-08T00:11:12;100553.28;;;4.90;97.65
57572;BME280;44459;43.522;24.470;2023-04-08T00:13:38;100561.13;;;4.90;97.70
57572;BME280;44459;43.522;24.470;2023-04-08T00:16:03;100558.63;;;4.93;97.40
57572;BME280;44459;43.522;24.470;2023-04-08T00:18:29;100561.19;;;4.92;96.77
57572;BME280;44459;43.522;24.470;2023-04-08T00:20:54;100561.47;;;4.99;96.62
57572;BME280;44459;43.522;24.470;2023-04-08T00:23:21;100565.91;;;5.02;96.67
57572;BME280;44459;43.522;24.470;2023-04-08T00:25:47;100569.41;;;5.02;96.71
57572;BME280;44459;43.522;24.470;2023-04-08T00:28:12;100560.66;;;5.02;96.57
57572;BME280;44459;43.522;24.470;2023-04-08T00:30:38;100554.28;;;4.94;96.84
57572;BME280;44459;43.522;24.470;2023-04-08T00:33:03;100550.75;;;4.92;96.78
57572;BME280;44459;43.522;24.470;2023-04-08T00:35:29;100548.94;;;4.91;97.96
57572;BME280;44459;43.522;24.470;2023-04-08T00:37:54;100547.22;;;4.91;98.45
57572;BME280;44459;43.522;24.470;2023-04-08T00:40:20;100544.25;;;4.81;99.17
57572;BME280;44459;43.522;24.470;2023-04-08T00:42:45;100543.53;;;4.85;98.69
57572;BME280;44459;43.522;24.470;2023-04-08T00:45:12;100546.97;;;4.84;98.44
57572;BME280;44459;43.522;24.470;2023-04-08T00:47:38;100553.09;;;4.84;98.57
57572;BME280;44459;43.522;24.470;2023-04-08T00:50:07;100551.19;;;4.80;98.99
57572;BME280;44459;43.522;24.470;2023-04-08T00:52:33;100549.22;;;4.73;99.10
57572;BME280;44459;43.522;24.470;2023-04-08T00:54:58;100543.69;;;4.64;99.66
57572;BME280;44459;43.522;24.470;2023-04-08T00:57:24;100554.03;;;4.61;100.00
57572;BME280;44459;43.522;24.470;2023-04-08T00:59:49;100553.94;;;4.58;100.00
57572;BME280;44459;43.522;24.470;2023-04-08T01:02:28;100555.47;;;4.53;100.00
57572;BME280;44459;43.522;24.470;2023-04-08T01:07:30;100557.31;;;4.55;100.00
57572;BME280;44459;43.522;24.470;2023-04-08T01:10:01;100552.94;;;4.54;100.00
57572;BME280;44459;43.522;24.470;2023-04-08T01:12:29;100555.69;;;4.59;100.00
57572;BME280;44459;43.522;24.470;2023-04-08T01:14:58;100558.31;;;4.59;100.00
57572;BME280;44459;43.522;24.470;2023-04-08T01:17:25;100556.31;;;4.52;100.00
57572;BME280;44459;43.522;24.470;2023-04-08T01:19:53;100552.78;;;4.50;100.00
57572;BME280;44459;43.522;24.470;2023-04-08T01:22:36;100558.94;;;4.52;100.00
57572;BME280;44459;43.522;24.470;2023-04-08T01:25:11;100569.16;;;4.46;100.00
57572;BME280;44459;43.522;24.470;2023-04-08T01:27:40;100560.41;;;4.44;100.00
57572;BME280;44459;43.522;24.470;2023-04-08T01:30:08;100560.22;;;4.39;100.00
57572;BME280;44459;43.522;24.470;2023-04-08T01:32:34;100554.91;;;4.36;100.00
57572;BME280;44459;43.522;24.470;2023-04-08T01:35:01;100559.16;;;4.34;100.00
57572;BME280;44459;43.522;24.470;2023-04-08T01:37:28;100567.16;;;4.39;100.00
57572;BME280;44459;43.522;24.470;2023-04-08T01:39:55;100562.75;;;4.36;100.00
57572;BME280;44459;43.522;24.470;2023-04-08T01:42:25;100557.63;;;4.39;100.00
57572;BME280;44459;43.522;24.470;2023-04-08T01:44:54;100561.22;;;4.43;100.00
57572;BME280;44459;43.522;24.470;2023-04-08T01:47:20;100563.84;;;4.43;100.00
57572;BME280;44459;43.522;24.470;2023-04-08T01:49:47;100563.06;;;4.45;100.00
57572;BME280;44459;43.522;24.470;2023-04-08T01:52:15;100572.72;;;4.48;100.00
57572;BME280;44459;43.522;24.470;2023-04-08T01:54:42;100567.50;;;4.48;100.00
57572;BME280;44459;43.522;24.470;2023-04-08T01:57:11;100571.09;;;4.51;100.00
57572;BME280;44459;43.522;24.470;2023-04-08T01:59:39;100574.84;;;4.58;100.00
57572;BME280;44459;43.522;24.470;2023-04-08T02:02:07;100569.72;;;4.61;99.90
57572;BME280;44459;43.522;24.470;2023-04-08T02:04:37;100571.38;;;4.59;99.45
57572;BME280;44459;43.522;24.470;2023-04-08T02:07:03;100573.16;;;4.60;99.83
57572;BME280;44459;43.522;24.470;2023-04-08T02:09:29;100571.66;;;4.67;98.91
57572;BME280;44459;43.522;24.470;2023-04-08T02:11:54;100572.47;;;4.66;99.31
57572;BME280;44459;43.522;24.470;2023-04-08T02:14:21;100569.88;;;4.66;99.25
57572;BME280;44459;43.522;24.470;2023-04-08T02:16:55;100565.38;;;4.62;99.47
57572;BME280;44459;43.522;24.470;2023-04-08T02:19:29;100563.63;;;4.62;99.66
57572;BME280;44459;43.522;24.470;2023-04-08T02:22:11;100566.25;;;4.62;99.51
57572;BME280;44459;43.522;24.470;2023-04-08T02:24:41;100566.41;;;4.67;99.44
57572;BME280;44459;43.522;24.470;2023-04-08T02:27:09;100564.59;;;4.64;98.84
57572;BME280;44459;43.522;24.470;2023-04-08T02:29:35;100574.47;;;4.73;98.53
57572;BME280;44459;43.522;24.470;2023-04-08T02:32:04;100565.63;;;4.69;98.17
57572;BME280;44459;43.522;24.470;2023-04-08T02:34:30;100565.63;;;4.69;98.13
57572;BME280;44459;43.522;24.470;2023-04-08T02:36:56;100567.59;;;4.75;97.81
57572;BME280;44459;43.522;24.470;2023-04-08T02:39:32;100575.38;;;4.73;98.04
57572;BME280;44459;43.522;24.470;2023-04-08T02:41:57;100566.59;;;4.71;97.52
57572;BME280;44459;43.522;24.470;2023-04-08T02:44:23;100564.81;;;4.70;97.73
57572;BME280;44459;43.522;24.470;2023-04-08T02:47:07;100563.88;;;4.68;98.20
57572;BME280;44459;43.522;24.470;2023-04-08T02:49:33;100560.03;;;4.58;98.83
57572;BME280;44459;43.522;24.470;2023-04-08T02:51:58;100567.00;;;4.58;99.18
57572;BME280;44459;43.522;24.470;2023-04-08T02:54:24;100556.28;;;4.50;98.89
57572;BME280;44459;43.522;24.470;2023-04-08T02:56:49;100564.00;;;4.47;99.79
57572;BME280;44459;43.522;24.470;2023-04-08T02:59:14;100559.53;;;4.45;100.00
57572;BME280;44459;43.522;24.470;2023-04-08T03:01:41;100565.63;;;4.44;100.00
57572;BME280;44459;43.522;24.470;2023-04-08T03:04:07;100566.38;;;4.41;100.00
57572;BME280;44459;43.522;24.470;2023-04-08T03:06:32;100572.50;;;4.42;100.00
57572;BME280;44459;43.522;24.470;2023-04-08T03:08:58;100572.41;;;4.39;100.00
57572;BME280;44459;43.522;24.470;2023-04-08T03:11:23;100571.69;;;4.43;100.00
57572;BME280;44459;43.522;24.470;2023-04-08T03:13:49;100566.50;;;4.44;100.00
57572;BME280;44459;43.522;24.470;2023-04-08T03:16:15;100576.19;;;4.47;100.00
57572;BME280;44459;43.522;24.470;2023-04-08T03:18:40;100571.84;;;4.47;100.00
57572;BME280;44459;43.522;24.470;2023-04-08T03:21:06;100580.81;;;4.54;99.47
57572;BME280;44459;43.522;24.470;2023-04-08T03:23:31;100580.72;;;4.52;99.12
57572;BME280;44459;43.522;24.470;2023-04-08T03:25:57;100581.63;;;4.53;99.13
57572;BME280;44459;43.522;24.470;2023-04-08T03:28:22;100582.53;;;4.53;99.17
57572;BME280;44459;43.522;24.470;2023-04-08T03:30:48;100582.53;;;4.53;99.10
57572;BME280;44459;43.522;24.470;2023-04-08T03:33:13;100580.69;;;4.51;99.46
57572;BME280;44459;43.522;24.470;2023-04-08T03:35:39;100578.84;;;4.48;99.38
57572;BME280;44459;43.522;24.470;2023-04-08T03:38:04;100580.56;;;4.48;99.67
57572;BME280;44459;43.522;24.470;2023-04-08T03:40:30;100582.97;;;4.42;100.00
57572;BME280;44459;43.522;24.470;2023-04-08T03:42:55;100574.91;;;4.36;100.00
57572;BME280;44459;43.522;24.470;2023-04-08T03:45:21;100589.88;;;4.40;100.00
57572;BME280;44459;43.522;24.470;2023-04-08T03:47:46;100586.25;;;4.36;100.00
57572;BME280;44459;43.522;24.470;2023-04-08T03:50:11;100584.47;;;4.35;100.00
57572;BME280;44459;43.522;24.470;2023-04-08T03:52:37;100590.63;;;4.37;100.00
57572;BME280;44459;43.522;24.470;2023-04-08T03:55:02;100584.44;;;4.34;100.00
57572;BME280;44459;43.522;24.470;2023-04-08T03:57:28;100587.75;;;4.30;100.00
57572;BME280;44459;43.522;24.470;2023-04-08T03:59:53;100585.03;;;4.27;100.00
57572;BME280;44459;43.522;24.470;2023-04-08T04:02:19;100593.81;;;4.29;100.00
57572;BME280;44459;43.522;24.470;2023-04-08T04:04:44;100595.75;;;4.34;100.00
57572;BME280;44459;43.522;24.470;2023-04-08T04:07:10;100588.78;;;4.35;100.00
57572;BME280;44459;43.522;24.470;2023-04-08T04:09:35;100590.69;;;4.39;100.00
57572;BME280;44459;43.522;24.470;2023-04-08T04:12:01;100596.03;;;4.42;100.00
57572;BME280;44459;43.522;24.470;2023-04-08T04:14:26;100592.63;;;4.44;100.00
57572;BME280;44459;43.522;24.470;2023-04-08T04:16:52;100589.78;;;4.38;100.00
57572;BME280;44459;43.522;24.470;2023-04-08T04:19:17;100597.84;;;4.44;100.00
57572;BME280;44459;43.522;24.470;2023-04-08T04:21:42;100596.03;;;4.42;100.00
57572;BME280;44459;43.522;24.470;2023-04-08T04:24:08;100607.66;;;4.50;100.00
57572;BME280;44459;43.522;24.470;2023-04-08T04:26:33;100605.03;;;4.50;100.00
57572;BME280;44459;43.522;24.470;2023-04-08T04:28:59;100610.38;;;4.53;100.00
57572;BME280;44459;43.522;24.470;2023-04-08T04:31:24;100602.47;;;4.51;100.00
57572;BME280;44459;43.522;24.470;2023-04-08T04:33:53;100612.59;;;4.66;100.00
57572;BME280;44459;43.522;24.470;2023-04-08T04:36:19;100608.47;;;4.73;100.00
57572;BME280;44459;43.522;24.470;2023-04-08T04:38:45;100615.59;;;4.77;100.00
57572;BME280;44459;43.522;24.470;2023-04-08T04:41:11;100612.19;;;4.79;100.00
57572;BME280;44459;43.522;24.470;2023-04-08T04:43:36;100619.38;;;4.85;99.64
57572;BME280;44459;43.522;24.470;2023-04-08T04:46:02;100615.84;;;4.84;98.76
57572;BME280;44459;43.522;24.470;2023-04-08T04:48:32;100613.25;;;4.84;99.16
57572;BME280;44459;43.522;24.470;2023-04-08T04:50:59;100621.16;;;4.86;99.46
57572;BME280;44459;43.522;24.470;2023-04-08T04:53:25;100624.06;;;4.95;99.43
57572;BME280;44459;43.522;24.470;2023-04-08T04:55:51;100617.31;;;5.01;98.29
57572;BME280;44459;43.522;24.470;2023-04-08T04:58:17;100617.50;;;5.06;98.48
57572;BME280;44459;43.522;24.470;2023-04-08T05:00:43;100612.53;;;5.14;98.29
57572;BME280;44459;43.522;24.470;2023-04-08T05:03:10;100615.91;;;5.11;97.96
57572;BME280;44459;43.522;24.470;2023-04-08T05:05:35;100603.44;;;5.04;98.16
57572;BME280;44459;43.522;24.470;2023-04-08T05:08:01;100615.97;;;5.13;98.77
57572;BME280;44459;43.522;24.470;2023-04-08T05:10:26;100610.00;;;5.17;97.72
57572;BME280;44459;43.522;24.470;2023-04-08T05:12:51;100618.31;;;5.30;98.01
57572;BME280;44459;43.522;24.470;2023-04-08T05:15:17;100612.44;;;5.37;97.46
57572;BME280;44459;43.522;24.470;2023-04-08T05:17:42;100607.31;;;5.40;97.16
57572;BME280;44459;43.522;24.470;2023-04-08T05:20:08;100611.75;;;5.43;97.70
57572;BME280;44459;43.522;24.470;2023-04-08T05:22:33;100607.00;;;5.58;99.72
57572;BME280;44459;43.522;24.470;2023-04-08T05:24:59;100604.19;;;5.79;100.00
57572;BME280;44459;43.522;24.470;2023-04-08T05:27:25;100605.03;;;6.06;99.49
57572;BME280;44459;43.522;24.470;2023-04-08T05:29:51;100601.25;;;6.25;96.34
57572;BME280;44459;43.522;24.470;2023-04-08T05:32:16;100610.38;;;6.39;95.50
57572;BME280;44459;43.522;24.470;2023-04-08T05:34:42;100605.31;;;6.45;95.08
57572;BME280;44459;43.522;24.470;2023-04-08T05:37:08;100597.16;;;6.66;93.66
57572;BME280;44459;43.522;24.470;2023-04-08T05:39:33;100599.78;;;6.66;92.61
57572;BME280;44459;43.522;24.470;2023-04-08T05:41:58;100600.06;;;6.76;92.02
57572;BME280;44459;43.522;24.470;2023-04-08T05:44:24;100603.47;;;6.72;91.52
57572;BME280;44459;43.522;24.470;2023-04-08T05:46:49;100606.59;;;6.90;93.35
57572;BME280;44459;43.522;24.470;2023-04-08T05:49:15;100603.97;;;6.92;91.67
57572;BME280;44459;43.522;24.470;2023-04-08T05:51:41;100601.78;;;7.07;90.37
57572;BME280;44459;43.522;24.470;2023-04-08T05:54:07;100602.75;;;7.11;89.92
57572;BME280;44459;43.522;24.470;2023-04-08T05:56:33;100594.94;;;7.14;88.65
57572;BME280;44459;43.522;24.470;2023-04-08T05:58:59;100603.00;;;7.21;89.33
57572;BME280;44459;43.522;24.470;2023-04-08T06:01:25;100606.69;;;7.29;86.57
57572;BME280;44459;43.522;24.470;2023-04-08T06:03:50;100609.09;;;7.54;86.83
57572;BME280;44459;43.522;24.470;2023-04-08T06:06:22;100602.38;;;7.67;85.72
57572;BME280;44459;43.522;24.470;2023-04-08T06:08:48;100600.28;;;7.90;84.45
57572;BME280;44459;43.522;24.470;2023-04-08T06:11:13;100597.31;;;8.14;83.30
57572;BME280;44459;43.522;24.470;2023-04-08T06:13:39;100605.59;;;8.30;82.33
57572;BME280;44459;43.522;24.470;2023-04-08T06:18:37;100601.91;;;8.64;80.78
57572;BME280;44459;43.522;24.470;2023-04-08T06:21:02;100592.75;;;8.90;81.10
57572;BME280;44459;43.522;24.470;2023-04-08T06:23:27;100600.94;;;9.05;77.85
57572;BME280;44459;43.522;24.470;2023-04-08T06:25:53;100600.19;;;9.14;78.45
57572;BME280;44459;43.522;24.470;2023-04-08T06:28:18;100604.09;;;9.36;76.38
57572;BME280;44459;43.522;24.470;2023-04-08T06:30:44;100605.31;;;9.56;75.07
57572;BME280;44459;43.522;24.470;2023-04-08T06:33:09;100600.31;;;9.74;74.14
57572;BME280;44459;43.522;24.470;2023-04-08T06:35:35;100593.28;;;9.73;71.67
57572;BME280;44459;43.522;24.470;2023-04-08T06:38:02;100595.78;;;9.64;70.88
57572;BME280;44459;43.522;24.470;2023-04-08T06:40:27;100598.94;;;10.00;72.97
57572;BME280;44459;43.522;24.470;2023-04-08T06:42:53;100589.31;;;10.02;69.49
57572;BME280;44459;43.522;24.470;2023-04-08T06:45:18;100594.00;;;10.20;67.86
57572;BME280;44459;43.522;24.470;2023-04-08T06:47:44;100596.34;;;10.03;68.92
57572;BME280;44459;43.522;24.470;2023-04-08T06:50:09;100606.41;;;10.27;68.63
57572;BME280;44459;43.522;24.470;2023-04-08T06:52:35;100598.50;;;10.27;67.10
57572;BME280;44459;43.522;24.470;2023-04-08T06:55:00;100603.03;;;10.37;67.29
57572;BME280;44459;43.522;24.470;2023-04-08T06:57:26;100602.41;;;10.59;68.93
57572;BME280;44459;43.522;24.470;2023-04-08T06:59:51;100596.31;;;10.65;69.73
57572;BME280;44459;43.522;24.470;2023-04-08T07:02:17;100593.84;;;10.83;67.24
57572;BME280;44459;43.522;24.470;2023-04-08T07:04:43;100589.41;;;10.78;64.37
57572;BME280;44459;43.522;24.470;2023-04-08T07:07:08;100592.97;;;10.81;66.98
57572;BME280;44459;43.522;24.470;2023-04-08T07:09:34;100591.34;;;10.94;66.33
57572;BME280;44459;43.522;24.470;2023-04-08T07:12:01;100598.50;;;11.05;67.39
57572;BME280;44459;43.522;24.470;2023-04-08T07:14:28;100584.66;;;11.32;66.24
57572;BME280;44459;43.522;24.470;2023-04-08T07:16:54;100586.56;;;11.50;64.59
57572;BME280;44459;43.522;24.470;2023-04-08T07:19:20;100589.09;;;11.35;63.23
57572;BME280;44459;43.522;24.470;2023-04-08T07:21:47;100597.94;;;11.40;64.06
57572;BME280;44459;43.522;24.470;2023-04-08T07:24:12;100593.63;;;11.48;64.74
57572;BME280;44459;43.522;24.470;2023-04-08T07:26:38;100589.31;;;11.62;64.85
57572;BME280;44459;43.522;24.470;2023-04-08T07:29:03;100606.06;;;11.64;63.63
57572;BME280;44459;43.522;24.470;2023-04-08T07:31:29;100613.25;;;11.80;63.33
57572;BME280;44459;43.522;24.470;2023-04-08T07:33:54;100606.34;;;11.99;63.75
57572;BME280;44459;43.522;24.470;2023-04-08T07:36:20;100610.00;;;12.18;60.09
57572;BME280;44459;43.522;24.470;2023-04-08T07:38:46;100610.91;;;12.21;63.18
57572;BME280;44459;43.522;24.470;2023-04-08T07:41:11;100610.00;;;12.25;61.74
57572;BME280;44459;43.522;24.470;2023-04-08T07:43:37;100618.03;;;12.40;61.46
57572;BME280;44459;43.522;24.470;2023-04-08T07:46:04;100612.72;;;12.34;61.54
57572;BME280;44459;43.522;24.470;2023-04-08T07:48:31;100610.16;;;12.49;64.87
57572;BME280;44459;43.522;24.470;2023-04-08T07:50:57;100619.94;;;12.72;61.04
57572;BME280;44459;43.522;24.470;2023-04-08T07:53:22;100620.75;;;12.54;57.67
57572;BME280;44459;43.522;24.470;2023-04-08T07:55:51;100624.31;;;12.56;58.90
57572;BME280;44459;43.522;24.470;2023-04-08T07:58:17;100620.78;;;12.58;59.82
57572;BME280;44459;43.522;24.470;2023-04-08T08:00:42;100623.50;;;12.80;60.25
57572;BME280;44459;43.522;24.470;2023-04-08T08:03:08;100634.19;;;13.01;60.95
57572;BME280;44459;43.522;24.470;2023-04-08T08:05:35;100628.88;;;13.04;59.05
57572;BME280;44459;43.522;24.470;2023-04-08T08:08:01;100617.38;;;13.00;60.19
57572;BME280;44459;43.522;24.470;2023-04-08T08:10:26;100629.75;;;13.03;57.61
57572;BME280;44459;43.522;24.470;2023-04-08T08:12:52;100621.03;;;13.36;60.63
57572;BME280;44459;43.522;24.470;2023-04-08T08:15:17;100625.44;;;13.64;59.69
57572;BME280;44459;43.522;24.470;2023-04-08T08:17:42;100635.16;;;13.68;57.63
57572;BME280;44459;43.522;24.470;2023-04-08T08:20:09;100625.44;;;13.38;55.95
57572;BME280;44459;43.522;24.470;2023-04-08T08:22:35;100634.28;;;13.39;58.96
57572;BME280;44459;43.522;24.470;2023-04-08T08:25:04;100635.13;;;13.18;58.00
57572;BME280;44459;43.522;24.470;2023-04-08T08:27:29;100637.69;;;13.03;58.04
57572;BME280;44459;43.522;24.470;2023-04-08T08:29:55;100635.88;;;12.79;59.57
57572;BME280;44459;43.522;24.470;2023-04-08T08:32:21;100643.84;;;12.93;61.12
57572;BME280;44459;43.522;24.470;2023-04-08T08:34:46;100639.53;;;13.13;60.15
57572;BME280;44459;43.522;24.470;2023-04-08T08:37:12;100643.03;;;13.04;59.20
57572;BME280;44459;43.522;24.470;2023-04-08T08:39:37;100642.94;;;12.88;58.21
57572;BME280;44459;43.522;24.470;2023-04-08T08:42:03;100639.44;;;12.90;58.60
57572;BME280;44459;43.522;24.470;2023-04-08T08:44:29;100642.06;;;12.84;58.05
57572;BME280;44459;43.522;24.470;2023-04-08T08:46:54;100633.22;;;12.76;59.43
57572;BME280;44459;43.522;24.470;2023-04-08T08:49:20;100630.56;;;12.81;60.54
57572;BME280;44459;43.522;24.470;2023-04-08T08:51:45;100642.00;;;12.68;60.52
57572;BME280;44459;43.522;24.470;2023-04-08T08:54:13;100635.75;;;12.52;57.80
57572;BME280;44459;43.522;24.470;2023-04-08T08:56:39;100626.09;;;12.61;58.41
57572;BME280;44459;43.522;24.470;2023-04-08T08:59:04;100635.00;;;12.88;60.14
57572;BME280;44459;43.522;24.470;2023-04-08T09:01:37;100634.25;;;13.12;59.79
57572;BME280;44459;43.522;24.470;2023-04-08T09:04:15;100640.47;;;13.29;60.02
57572;BME280;44459;43.522;24.470;2023-04-08T09:06:43;100650.06;;;13.08;58.24
57572;BME280;44459;43.522;24.470;2023-04-08T09:09:10;100646.59;;;13.16;61.65
57572;BME280;44459;43.522;24.470;2023-04-08T09:11:40;100644.88;;;13.22;59.68
57572;BME280;44459;43.522;24.470;2023-04-08T09:14:25;100639.53;;;13.19;58.55
57572;BME280;44459;43.522;24.470;2023-04-08T09:16:51;100652.81;;;13.30;56.66
57572;BME280;44459;43.522;24.470;2023-04-08T09:19:17;100641.31;;;13.31;58.20
57572;BME280;44459;43.522;24.470;2023-04-08T09:21:43;100644.78;;;13.01;55.59
57572;BME280;44459;43.522;24.470;2023-04-08T09:24:09;100658.91;;;13.06;59.45
57572;BME280;44459;43.522;24.470;2023-04-08T09:26:50;100657.06;;;12.79;58.01
57572;BME280;44459;43.522;24.470;2023-04-08T09:29:16;100662.28;;;12.59;57.40
57572;BME280;44459;43.522;24.470;2023-04-08T09:31:41;100650.84;;;12.70;60.99
57572;BME280;44459;43.522;24.470;2023-04-08T09:34:14;100656.97;;;12.61;58.44
57572;BME280;44459;43.522;24.470;2023-04-08T09:36:48;100651.66;;;12.55;57.52
57572;BME280;44459;43.522;24.470;2023-04-08T09:39:14;100648.97;;;12.46;57.68
57572;BME280;44459;43.522;24.470;2023-04-08T09:41:41;100645.53;;;12.71;59.15
57572;BME280;44459;43.522;24.470;2023-04-08T09:44:09;100644.75;;;12.99;58.80
57572;BME280;44459;43.522;24.470;2023-04-08T09:49:28;100644.03;;;13.73;55.88
57572;BME280;44459;43.522;24.470;2023-04-08T09:57:10;100636.91;;;13.54;55.71
57572;BME280;44459;43.522;24.470;2023-04-08T09:59:44;100650.19;;;13.55;55.89
57572;BME280;44459;43.522;24.470;2023-04-08T10:02:16;100651.06;;;13.47;56.88
57572;BME280;44459;43.522;24.470;2023-04-08T10:04:47;100654.59;;;13.31;55.87
57572;BME280;44459;43.522;24.470;2023-04-08T10:07:14;100651.94;;;13.29;55.50
57572;BME280;44459;43.522;24.470;2023-04-08T10:09:40;100660.81;;;13.52;55.44
57572;BME280;44459;43.522;24.470;2023-04-08T10:12:07;100651.94;;;13.64;56.55
57572;BME280;44459;43.522;24.470;2023-04-08T10:14:33;100661.72;;;13.77;57.05
57572;BME280;44459;43.522;24.470;2023-04-08T10:17:27;100659.03;;;13.44;56.79
57572;BME280;44459;43.522;24.470;2023-04-08T10:19:52;100658.94;;;13.12;56.80
57572;BME280;44459;43.522;24.470;2023-04-08T10:27:40;100654.50;;;13.06;57.21
57572;BME280;44459;43.522;24.470;2023-04-08T10:32:58;100659.75;;;12.90;56.65
57572;BME280;44459;43.522;24.470;2023-04-08T10:35:32;100658.91;;;13.00;57.93
57572;BME280;44459;43.522;24.470;2023-04-08T10:37:59;100648.28;;;12.94;57.30
57572;BME280;44459;43.522;24.470;2023-04-08T10:40:25;100651.75;;;12.78;57.28
57572;BME280;44459;43.522;24.470;2023-04-08T10:42:57;100636.75;;;12.84;57.06
57572;BME280;44459;43.522;24.470;2023-04-08T10:45:22;100639.41;;;12.84;55.88
57572;BME280;44459;43.522;24.470;2023-04-08T10:47:48;100636.75;;;12.78;56.47
57572;BME280;44459;43.522;24.470;2023-04-08T10:50:15;100628.84;;;12.93;57.26
57572;BME280;44459;43.522;24.470;2023-04-08T10:52:52;100636.00;;;13.23;60.13
57572;BME280;44459;43.522;24.470;2023-04-08T10:55:25;100634.28;;;13.42;56.18
57572;BME280;44459;43.522;24.470;2023-04-08T10:57:54;100634.28;;;13.60;54.37
57572;BME280;44459;43.522;24.470;2023-04-08T11:00:40;100637.81;;;13.97;57.47
57572;BME280;44459;43.522;24.470;2023-04-08T11:03:07;100624.53;;;13.86;53.54
57572;BME280;44459;43.522;24.470;2023-04-08T11:05:33;100636.91;;;13.78;53.62
57572;BME280;44459;43.522;24.470;2023-04-08T11:08:00;100632.50;;;13.44;53.66
57572;BME280;44459;43.522;24.470;2023-04-08T11:10:26;100637.81;;;13.62;54.59
57572;BME280;44459;43.522;24.470;2023-04-08T11:12:55;100626.31;;;13.90;53.99
57572;BME280;44459;43.522;24.470;2023-04-08T11:15:21;100636.00;;;13.99;53.38
57572;BME280;44459;43.522;24.470;2023-04-08T11:17:48;100620.09;;;13.93;53.46
57572;BME280;44459;43.522;24.470;2023-04-08T11:20:14;100615.72;;;13.66;52.77
57572;BME280;44459;43.522;24.470;2023-04-08T11:22:40;100632.50;;;13.97;54.03
57572;BME280;44459;43.522;24.470;2023-04-08T11:25:07;100618.31;;;13.99;54.41
57572;BME280;44459;43.522;24.470;2023-04-08T11:27:34;100628.09;;;13.67;52.17
57572;BME280;44459;43.522;24.470;2023-04-08T11:30:01;100625.44;;;13.41;53.64
57572;BME280;44459;43.522;24.470;2023-04-08T11:32:26;100623.66;;;13.37;53.06
57572;BME280;44459;43.522;24.470;2023-04-08T11:34:53;100620.13;;;13.38;51.90
57572;BME280;44459;43.522;24.470;2023-04-08T11:37:19;100626.31;;;13.42;50.54
57572;BME280;44459;43.522;24.470;2023-04-08T11:39:45;100621.03;;;13.57;51.14
57572;BME280;44459;43.522;24.470;2023-04-08T11:42:30;100624.53;;;13.82;52.55
57572;BME280;44459;43.522;24.470;2023-04-08T11:44:56;100615.66;;;13.99;51.79
57572;BME280;44459;43.522;24.470;2023-04-08T11:47:32;100620.94;;;14.21;51.05
57572;BME280;44459;43.522;24.470;2023-04-08T11:49:58;100602.38;;;14.19;51.65
57572;BME280;44459;43.522;24.470;2023-04-08T11:52:45;100612.13;;;14.00;49.74
57572;BME280;44459;43.522;24.470;2023-04-08T11:55:30;100611.28;;;13.88;50.47
57572;BME280;44459;43.522;24.470;2023-04-08T11:58:01;100608.63;;;13.94;52.58
57572;BME280;44459;43.522;24.470;2023-04-08T12:00:27;100610.34;;;14.10;50.27
57572;BME280;44459;43.522;24.470;2023-04-08T12:02:52;100603.31;;;13.98;53.63
57572;BME280;44459;43.522;24.470;2023-04-08T12:05:18;100599.75;;;13.96;52.40
57572;BME280;44459;43.522;24.470;2023-04-08T12:07:44;100599.69;;;14.21;52.78
57572;BME280;44459;43.522;24.470;2023-04-08T12:10:09;100596.13;;;14.28;52.02
57572;BME280;44459;43.522;24.470;2023-04-08T12:12:35;100590.81;;;14.31;52.28
57572;BME280;44459;43.522;24.470;2023-04-08T12:15:01;100589.06;;;14.30;51.33
57572;BME280;44459;43.522;24.470;2023-04-08T12:17:26;100591.72;;;14.39;50.41
57572;BME280;44459;43.522;24.470;2023-04-08T12:19:52;100580.97;;;14.66;49.89
57572;BME280;44459;43.522;24.470;2023-04-08T12:22:17;100579.84;;;15.08;50.72
57572;BME280;44459;43.522;24.470;2023-04-08T12:24:43;100583.97;;;15.45;49.87
57572;BME280;44459;43.522;24.470;2023-04-08T12:27:08;100584.59;;;15.82;50.21
57572;BME280;44459;43.522;24.470;2023-04-08T12:29:34;100573.09;;;15.77;49.41
57572;BME280;44459;43.522;24.470;2023-04-08T12:31:59;100574.72;;;15.90;48.36
57572;BME280;44459;43.522;24.470;2023-04-08T12:34:24;100561.50;;;15.81;47.19
57572;BME280;44459;43.522;24.470;2023-04-08T12:36:50;100565.34;;;15.51;48.31
57572;BME280;44459;43.522;24.470;2023-04-08T12:39:16;100565.41;;;15.39;49.41
57572;BME280;44459;43.522;24.470;2023-04-08T12:41:41;100559.22;;;15.34;49.21
57572;BME280;44459;43.522;24.470;2023-04-08T12:44:07;100564.66;;;15.24;49.41
57572;BME280;44459;43.522;24.470;2023-04-08T12:46:32;100558.50;;;15.16;48.36
57572;BME280;44459;43.522;24.470;2023-04-08T12:48:58;100557.59;;;15.20;46.96
57572;BME280;44459;43.522;24.470;2023-04-08T12:51:23;100557.44;;;15.39;47.35
57572;BME280;44459;43.522;24.470;2023-04-08T12:53:51;100543.50;;;15.04;48.38
57572;BME280;44459;43.522;24.470;2023-04-08T12:56:17;100558.38;;;15.34;49.30
57572;BME280;44459;43.522;24.470;2023-04-08T12:58:42;100565.69;;;15.00;47.01
57572;BME280;44459;43.522;24.470;2023-04-08T13:01:08;100550.56;;;15.06;48.82
57572;BME280;44459;43.522;24.470;2023-04-08T13:03:33;100547.94;;;15.03;49.70